createdAt,value
2019-04-27T00:02:06.560Z,18.30
2019-04-27T00:04:37.724Z,18.20
2019-04-27T00:07:16.950Z,18.10
2019-04-27T00:09:50.248Z,18.00
2019-04-27T00:12:16.450Z,17.90
2019-04-27T00:14:48.293Z,17.80
2019-04-27T00:17:45.386Z,17.60
2019-04-27T00:20:23.828Z,17.50
2019-04-27T00:22:59.010Z,17.40
2019-04-27T00:25:27.730Z,17.20
2019-04-27T00:27:55.706Z,17.10
2019-04-27T00:30:23.644Z,16.90
2019-04-27T00:32:53.611Z,16.80
2019-04-27T00:35:23.500Z,16.80
2019-04-27T00:37:58.708Z,16.70
2019-04-27T00:40:28.363Z,16.70
2019-04-27T00:42:56.484Z,16.60
2019-04-27T00:45:26.840Z,16.60
2019-04-27T00:47:59.508Z,16.50
2019-04-27T00:50:24.371Z,16.50
2019-04-27T00:52:53.191Z,16.50
2019-04-27T00:55:23.338Z,16.40
2019-04-27T00:58:03.951Z,16.30
2019-04-27T01:00:41.444Z,16.30
2019-04-27T01:03:13.994Z,16.20
2019-04-27T01:05:43.035Z,16.10
2019-04-27T01:08:13.888Z,16.00
2019-04-27T01:10:43.508Z,15.90
2019-04-27T01:13:13.123Z,15.90
2019-04-27T01:15:43.026Z,15.90
2019-04-27T01:18:15.018Z,15.90
2019-04-27T01:20:40.774Z,15.80
2019-04-27T01:23:08.892Z,15.70
2019-04-27T01:25:48.876Z,15.70
2019-04-27T01:28:20.654Z,15.70
2019-04-27T01:30:50.639Z,15.60
2019-04-27T01:33:19.784Z,15.60
2019-04-27T01:35:49.152Z,15.50
2019-04-27T01:38:19.168Z,15.50
2019-04-27T01:40:47.098Z,15.40
2019-04-27T01:43:15.106Z,15.40
2019-04-27T01:45:43.132Z,15.40
2019-04-27T01:48:23.003Z,15.30
2019-04-27T01:50:40.843Z,15.30
2019-04-27T01:53:09.176Z,15.30
2019-04-27T01:55:38.619Z,15.20
2019-04-27T01:58:08.830Z,15.20
2019-04-27T02:00:42.957Z,15.10
2019-04-27T02:03:15.639Z,15.00
2019-04-27T02:05:49.215Z,15.00
2019-04-27T02:08:17.304Z,14.90
2019-04-27T02:10:45.157Z,14.90
2019-04-27T02:13:18.803Z,14.90
2019-04-27T02:15:42.773Z,14.80
2019-04-27T02:18:10.887Z,14.80
2019-04-27T02:20:38.868Z,14.80
2019-04-27T02:23:09.173Z,14.70
2019-04-27T02:25:39.630Z,14.60
2019-04-27T02:28:15.208Z,14.60
2019-04-27T02:30:44.744Z,14.60
2019-04-27T02:33:32.183Z,14.50
2019-04-27T02:36:00.471Z,14.50
2019-04-27T02:38:30.502Z,14.50
2019-04-27T02:40:59.808Z,14.50
2019-04-27T02:43:29.830Z,14.50
2019-04-27T02:46:00.423Z,14.50
2019-04-27T02:48:29.963Z,14.50
2019-04-27T02:51:10.083Z,14.40
2019-04-27T02:53:52.645Z,14.40
2019-04-27T02:56:22.602Z,14.40
2019-04-27T02:58:50.773Z,14.30
2019-04-27T03:01:20.210Z,14.30
2019-04-27T03:03:50.227Z,14.30
2019-04-27T03:06:19.879Z,14.30
2019-04-27T03:08:52.847Z,14.20
2019-04-27T03:11:20.497Z,14.30
2019-04-27T03:13:52.007Z,14.30
2019-04-27T03:16:22.697Z,14.30
2019-04-27T03:19:18.227Z,14.20
2019-04-27T03:22:02.296Z,14.30
2019-04-27T03:24:49.770Z,14.30
2019-04-27T03:27:20.184Z,14.20
2019-04-27T03:29:49.915Z,14.20
2019-04-27T03:32:22.430Z,14.20
2019-04-27T03:34:51.854Z,14.20
2019-04-27T03:37:20.282Z,14.20
2019-04-27T03:39:51.154Z,14.20
2019-04-27T03:42:22.435Z,14.20
2019-04-27T03:44:50.522Z,14.10
2019-04-27T03:47:20.743Z,14.10
2019-04-27T03:49:50.888Z,14.10
2019-04-27T03:52:39.593Z,14.10
2019-04-27T03:55:14.481Z,14.10
2019-04-27T03:57:55.862Z,14.00
2019-04-27T04:00:25.823Z,14.00
2019-04-27T04:02:53.905Z,13.90
2019-04-27T04:05:22.032Z,14.00
2019-04-27T04:07:50.502Z,14.00
2019-04-27T04:10:19.782Z,14.00
2019-04-27T04:12:50.082Z,14.00
2019-04-27T04:15:31.768Z,14.00
2019-04-27T04:17:59.779Z,14.00
2019-04-27T04:20:30.277Z,14.00
2019-04-27T04:23:00.208Z,14.10
2019-04-27T04:25:33.004Z,14.10
2019-04-27T04:28:00.664Z,14.10
2019-04-27T04:30:30.246Z,14.10
2019-04-27T04:33:01.755Z,14.10
2019-04-27T04:35:33.337Z,14.10
2019-04-27T04:38:01.586Z,14.20
2019-04-27T04:40:31.337Z,14.20
2019-04-27T04:43:10.547Z,14.20
2019-04-27T04:45:56.028Z,14.30
2019-04-27T04:48:24.218Z,14.30
2019-04-27T04:50:52.178Z,14.40
2019-04-27T04:53:20.732Z,14.40
2019-04-27T04:55:52.506Z,14.40
2019-04-27T04:58:21.176Z,14.40
2019-04-27T05:00:50.206Z,14.50
2019-04-27T05:03:21.888Z,14.50
2019-04-27T05:05:50.234Z,14.50
2019-04-27T05:08:19.069Z,14.50
2019-04-27T05:10:49.704Z,14.50
2019-04-27T05:13:19.355Z,14.50
2019-04-27T05:15:48.688Z,14.50
2019-04-27T05:18:18.964Z,14.60
2019-04-27T05:20:48.670Z,14.60
2019-04-27T05:23:18.648Z,14.60
2019-04-27T05:25:46.999Z,14.60
2019-04-27T05:28:14.892Z,14.60
2019-04-27T05:30:42.905Z,14.60
2019-04-27T05:33:10.863Z,14.60
2019-04-27T05:35:43.444Z,14.60
2019-04-27T05:38:13.610Z,14.70
2019-04-27T05:40:42.367Z,14.70
2019-04-27T05:43:11.964Z,14.70
2019-04-27T05:45:43.025Z,14.80
2019-04-27T05:48:12.477Z,14.80
2019-04-27T05:50:45.706Z,14.80
2019-04-27T05:53:22.188Z,14.80
2019-04-27T05:55:49.981Z,14.80
2019-04-27T05:58:19.431Z,14.80
2019-04-27T06:00:49.574Z,14.80
2019-04-27T06:03:18.645Z,14.80
2019-04-27T06:06:01.732Z,14.80
2019-04-27T06:08:29.444Z,14.80
2019-04-27T06:10:59.089Z,14.70
2019-04-27T06:13:30.995Z,14.70
2019-04-27T06:15:59.260Z,14.70
2019-04-27T06:18:29.158Z,14.70
2019-04-27T06:20:57.053Z,14.70
2019-04-27T06:23:28.856Z,14.70
2019-04-27T06:25:56.723Z,14.70
2019-04-27T06:28:24.685Z,14.60
2019-04-27T06:30:55.615Z,14.60
2019-04-27T06:33:31.989Z,14.60
2019-04-27T06:35:53.897Z,14.60
2019-04-27T06:38:22.013Z,14.60
2019-04-27T06:40:50.893Z,14.60
2019-04-27T06:43:20.534Z,14.60
2019-04-27T06:45:48.876Z,14.60
2019-04-27T06:48:17.255Z,14.50
2019-04-27T06:50:45.935Z,14.60
2019-04-27T06:53:22.195Z,14.60
2019-04-27T06:55:54.947Z,14.60
2019-04-27T06:58:24.525Z,14.60
2019-04-27T07:00:56.186Z,14.60
2019-04-27T07:03:24.166Z,14.50
2019-04-27T07:05:53.532Z,14.40
2019-04-27T07:08:21.654Z,14.30
2019-04-27T07:13:53.035Z,14.10
2019-04-27T07:33:11.103Z,14.20
2019-04-27T07:35:39.730Z,14.30
2019-04-27T07:38:10.570Z,14.40
2019-04-27T07:43:31.594Z,14.40
2019-04-27T07:46:00.027Z,14.40
2019-04-27T07:51:32.053Z,14.50
2019-04-27T07:54:00.115Z,14.50
2019-04-27T07:56:30.424Z,14.60
2019-04-27T08:02:02.653Z,14.60
2019-04-27T08:04:34.082Z,14.60
2019-04-27T08:07:03.709Z,14.60
2019-04-27T08:09:31.753Z,14.60
2019-04-27T08:12:03.568Z,14.70
2019-04-27T08:14:39.869Z,14.80
2019-04-27T08:17:09.618Z,14.80
2019-04-27T08:19:39.454Z,14.80
2019-04-27T08:25:03.548Z,14.90
2019-04-27T08:27:39.360Z,14.80
2019-04-27T08:30:14.325Z,14.70
2019-04-27T08:35:43.127Z,14.50
2019-04-27T08:38:12.986Z,14.50
2019-04-27T08:40:59.279Z,14.50
2019-04-27T08:43:39.020Z,14.50
2019-04-27T08:46:10.139Z,14.50
2019-04-27T08:48:40.034Z,14.40
2019-04-27T08:51:09.580Z,14.40
2019-04-27T08:53:39.808Z,14.40
2019-04-27T08:56:15.541Z,14.40
2019-04-27T09:01:24.803Z,14.40
2019-04-27T09:04:02.877Z,14.50
2019-04-27T09:06:31.234Z,14.50
2019-04-27T09:09:09.498Z,14.60
2019-04-27T09:14:42.240Z,14.60
2019-04-27T09:20:31.174Z,14.60
2019-04-27T09:32:08.902Z,14.80
2019-04-27T09:34:27.118Z,14.70
2019-04-27T09:42:41.071Z,14.70
2019-04-27T09:45:15.939Z,14.70
2019-04-27T09:47:56.079Z,14.70
2019-04-27T09:50:33.138Z,14.60
2019-04-27T09:53:13.262Z,14.70
2019-04-27T09:55:42.353Z,14.80
2019-04-27T09:58:11.000Z,14.70
2019-04-27T10:03:50.270Z,14.70
2019-04-27T10:09:15.991Z,14.50
2019-04-27T10:11:56.780Z,14.50
2019-04-27T10:14:36.786Z,14.50
2019-04-27T10:17:13.303Z,14.50
2019-04-27T10:19:42.905Z,14.50
2019-04-27T10:22:11.042Z,14.50
2019-04-27T10:24:40.120Z,14.60
2019-04-27T10:27:08.172Z,14.60
2019-04-27T10:29:36.195Z,14.60
2019-04-27T10:32:06.956Z,14.60
2019-04-27T10:34:37.979Z,14.60
2019-04-27T10:37:09.705Z,14.60
2019-04-27T10:39:37.601Z,14.60
2019-04-27T10:42:06.938Z,14.60
2019-04-27T10:44:36.942Z,14.50
2019-04-27T10:47:05.938Z,14.50
2019-04-27T10:49:34.234Z,14.40
2019-04-27T10:52:05.837Z,14.40
2019-04-27T10:54:35.325Z,14.30
2019-04-27T10:57:05.945Z,14.30
2019-04-27T10:59:33.178Z,14.40
2019-04-27T11:02:01.484Z,14.50
2019-04-27T11:04:46.743Z,14.70
2019-04-27T11:07:16.655Z,14.90
2019-04-27T11:09:44.756Z,15.00
2019-04-27T11:12:12.968Z,15.20
2019-04-27T11:14:42.186Z,15.30
2019-04-27T11:17:11.211Z,15.50
2019-04-27T11:19:39.225Z,15.60
2019-04-27T11:22:09.408Z,15.70
2019-04-27T11:24:38.739Z,15.70
2019-04-27T11:27:08.841Z,15.70
2019-04-27T11:29:37.635Z,15.70
2019-04-27T11:32:07.396Z,15.70
2019-04-27T11:34:55.714Z,15.80
2019-04-27T11:37:25.281Z,15.70
2019-04-27T11:39:53.526Z,15.70
2019-04-27T11:42:21.476Z,15.60
2019-04-27T11:44:50.621Z,15.50
2019-04-27T11:47:18.756Z,15.50
2019-04-27T11:49:49.714Z,15.50
2019-04-27T11:52:18.466Z,15.60
2019-04-27T11:54:57.170Z,15.60
2019-04-27T11:57:30.535Z,15.70
2019-04-27T12:00:01.148Z,15.70
2019-04-27T12:02:33.459Z,15.70
2019-04-27T12:05:01.536Z,15.80
2019-04-27T12:07:29.476Z,15.90
2019-04-27T12:09:57.716Z,15.90
2019-04-27T12:12:26.237Z,16.00
2019-04-27T12:14:56.032Z,15.90
2019-04-27T12:17:28.943Z,15.90
2019-04-27T12:19:56.732Z,15.70
2019-04-27T12:22:28.145Z,15.70
2019-04-27T12:24:56.361Z,15.60
2019-04-27T12:27:35.878Z,15.60
2019-04-27T12:30:19.011Z,15.60
2019-04-27T12:32:49.730Z,15.60
2019-04-27T12:35:19.489Z,15.60
2019-04-27T12:37:47.601Z,15.60
2019-04-27T12:40:17.100Z,15.60
2019-04-27T12:42:45.100Z,15.50
2019-04-27T12:45:13.172Z,15.40
2019-04-27T12:47:42.038Z,15.30
2019-04-27T12:50:13.200Z,15.20
2019-04-27T12:52:42.727Z,15.20
2019-04-27T12:55:30.501Z,15.20
2019-04-27T12:58:03.374Z,15.10
2019-04-27T13:00:33.104Z,15.00
2019-04-27T13:03:03.111Z,15.00
2019-04-27T13:05:32.755Z,14.90
2019-04-27T13:08:03.943Z,14.80
2019-04-27T13:10:31.981Z,14.90
2019-04-27T13:13:00.620Z,14.90
2019-04-27T13:15:28.736Z,14.90
2019-04-27T13:17:57.404Z,14.90
2019-04-27T13:20:28.547Z,14.90
2019-04-27T13:23:01.725Z,15.00
2019-04-27T13:25:29.390Z,15.00
2019-04-27T13:28:01.234Z,15.00
2019-04-27T13:30:29.266Z,15.00
2019-04-27T13:32:57.436Z,15.10
2019-04-27T13:35:25.822Z,15.30
2019-04-27T13:37:55.798Z,15.40
2019-04-27T13:40:23.520Z,15.40
2019-04-27T13:42:57.233Z,15.60
2019-04-27T13:45:36.004Z,15.80
2019-04-27T13:48:11.325Z,15.90
2019-04-27T13:50:45.567Z,15.90
2019-04-27T13:53:13.504Z,15.90
2019-04-27T13:55:41.660Z,15.80
2019-04-27T13:58:09.813Z,15.80
2019-04-27T14:00:38.030Z,15.70
2019-04-27T14:03:08.903Z,15.70
2019-04-27T14:05:38.635Z,15.70
2019-04-27T14:08:06.807Z,15.60
2019-04-27T14:10:42.317Z,15.50
2019-04-27T14:13:08.810Z,15.50
2019-04-27T14:15:39.023Z,15.40
2019-04-27T14:18:08.369Z,15.50
2019-04-27T14:20:36.668Z,15.40
2019-04-27T14:23:12.230Z,15.50
2019-04-27T14:25:40.313Z,15.40
2019-04-27T14:28:08.601Z,15.50
2019-04-27T14:30:38.089Z,15.60
2019-04-27T14:33:08.879Z,15.90
2019-04-27T14:35:36.972Z,16.10
2019-04-27T14:38:04.971Z,16.30
2019-04-27T14:40:32.942Z,16.50
2019-04-27T14:43:01.397Z,16.60
2019-04-27T14:45:34.191Z,16.60
2019-04-27T14:47:59.585Z,16.50
2019-04-27T14:50:27.613Z,16.30
2019-04-27T14:52:55.726Z,16.20
2019-04-27T14:55:23.771Z,15.90
2019-04-27T14:57:51.886Z,15.80
2019-04-27T15:00:21.000Z,15.60
2019-04-27T15:02:49.157Z,15.50
2019-04-27T15:05:18.447Z,15.50
2019-04-27T15:07:46.300Z,15.50
2019-04-27T15:10:16.188Z,15.70
2019-04-27T15:12:46.774Z,15.90
2019-04-27T15:15:14.733Z,16.10
2019-04-27T15:18:06.296Z,16.20
2019-04-27T15:20:41.485Z,16.40
2019-04-27T15:23:10.167Z,16.60
2019-04-27T15:31:26.366Z,17.10
2019-04-27T15:33:56.942Z,17.10
2019-04-27T15:36:35.367Z,17.30
2019-04-27T15:39:16.093Z,17.20
2019-04-27T15:45:01.466Z,17.20
2019-04-27T15:53:56.633Z,17.00
2019-04-27T15:56:24.939Z,17.00
2019-04-27T15:59:00.006Z,16.90
2019-04-27T16:01:40.431Z,16.80
2019-04-27T16:04:11.183Z,16.80
2019-04-27T16:07:00.662Z,16.60
2019-04-27T16:09:30.006Z,16.50
2019-04-27T16:12:09.622Z,16.50
2019-04-27T16:14:29.537Z,16.50
2019-04-27T16:17:12.720Z,16.40
2019-04-27T16:19:58.069Z,16.40
2019-04-27T16:25:23.619Z,16.30
2019-04-27T16:27:50.874Z,16.20
2019-04-27T16:30:21.086Z,16.20
2019-04-27T16:32:55.084Z,16.10
2019-04-27T16:35:23.407Z,16.10
2019-04-27T16:38:09.617Z,16.10
2019-04-27T16:40:39.742Z,16.00
2019-04-27T16:43:12.184Z,16.00
2019-04-27T16:45:48.528Z,16.00
2019-04-27T16:48:18.439Z,16.00
2019-04-27T16:50:47.965Z,15.90
2019-04-27T16:53:23.623Z,15.90
2019-04-27T16:56:01.562Z,16.00
2019-04-27T16:58:25.991Z,16.00
2019-04-27T17:01:10.465Z,16.00
2019-04-27T17:03:36.799Z,16.00
2019-04-27T17:06:09.009Z,15.90
2019-04-27T17:08:51.879Z,15.80
2019-04-27T17:11:20.143Z,15.70
2019-04-27T17:14:00.613Z,15.60
2019-04-27T17:16:46.330Z,15.50
2019-04-27T17:19:21.019Z,15.50
2019-04-27T17:21:49.226Z,15.50
2019-04-27T17:24:21.265Z,15.50
2019-04-27T17:26:49.402Z,15.50
2019-04-27T17:29:20.530Z,15.50
2019-04-27T17:31:54.522Z,15.40
2019-04-27T17:34:25.316Z,15.30
2019-04-27T17:37:00.118Z,15.10
2019-04-27T17:39:29.835Z,15.00
2019-04-27T17:41:58.537Z,14.90
2019-04-27T17:44:36.685Z,14.80
2019-04-27T17:47:10.326Z,14.70
2019-04-27T17:49:40.037Z,14.60
2019-04-27T17:52:08.773Z,14.60
2019-04-27T17:54:40.808Z,14.50
2019-04-27T17:57:10.440Z,14.40
2019-04-27T17:59:37.468Z,14.30
2019-04-27T18:02:06.346Z,14.20
2019-04-27T18:04:37.672Z,14.10
2019-04-27T18:07:04.927Z,14.00
2019-04-27T18:09:33.505Z,14.00
2019-04-27T18:12:08.152Z,13.90
2019-04-27T18:14:39.502Z,13.90
2019-04-27T18:17:07.610Z,13.80
2019-04-27T18:19:40.210Z,13.80
2019-04-27T18:22:07.563Z,13.70
2019-04-27T18:24:38.035Z,13.70
2019-04-27T18:27:51.391Z,13.60
2019-04-27T18:30:41.869Z,13.60
2019-04-27T18:33:08.191Z,13.50
2019-04-27T18:35:40.745Z,13.50
2019-04-27T18:41:02.914Z,13.40
2019-04-27T18:43:29.071Z,13.30
2019-04-27T18:45:58.736Z,13.30
2019-04-27T18:48:44.728Z,13.20
2019-04-27T18:51:25.140Z,13.20
2019-04-27T18:53:54.182Z,13.20
2019-04-27T18:56:20.863Z,13.20
2019-04-27T18:58:48.686Z,13.10
2019-04-27T19:01:18.679Z,13.10
2019-04-27T19:03:47.528Z,13.00
2019-04-27T19:06:15.857Z,13.00
2019-04-27T19:08:43.678Z,13.00
2019-04-27T19:11:11.534Z,13.00
2019-04-27T19:13:40.197Z,12.90
2019-04-27T19:16:08.430Z,12.90
2019-04-27T19:18:39.859Z,12.90
2019-04-27T19:21:08.763Z,12.80
2019-04-27T19:23:40.146Z,12.80
2019-04-27T19:26:26.690Z,12.80
2019-04-27T19:29:12.237Z,12.90
2019-04-27T19:31:41.726Z,12.90
2019-04-27T19:34:12.594Z,12.80
2019-04-27T19:36:41.399Z,12.80
2019-04-27T19:39:13.727Z,12.80
2019-04-27T19:41:40.627Z,12.80
2019-04-27T19:44:10.143Z,12.80
2019-04-27T19:46:39.904Z,12.80
2019-04-27T19:49:09.629Z,12.80
2019-04-27T19:51:39.173Z,12.70
2019-04-27T19:54:09.055Z,12.80
2019-04-27T19:56:38.381Z,12.70
2019-04-27T19:59:08.956Z,12.70
2019-04-27T20:01:40.094Z,12.70
2019-04-27T20:04:28.190Z,12.60
2019-04-27T20:06:56.753Z,12.60
2019-04-27T20:09:42.991Z,12.50
2019-04-27T20:12:11.108Z,12.50
2019-04-27T20:14:52.950Z,12.50
2019-04-27T20:17:25.190Z,12.50
2019-04-27T20:19:53.302Z,12.50
2019-04-27T20:22:24.409Z,12.40
2019-04-27T20:24:52.554Z,12.40
2019-04-27T20:27:21.192Z,12.40
2019-04-27T20:29:49.422Z,12.40
2019-04-27T20:32:17.483Z,12.40
2019-04-27T20:34:49.170Z,12.30
2019-04-27T20:37:20.883Z,12.30
2019-04-27T20:39:48.436Z,12.30
2019-04-27T20:42:16.550Z,12.30
2019-04-27T20:44:46.256Z,12.20
2019-04-27T20:47:14.751Z,12.20
2019-04-27T20:49:42.826Z,12.20
2019-04-27T20:52:16.922Z,12.20
2019-04-27T20:54:45.722Z,12.10
2019-04-27T20:57:13.892Z,12.10
2019-04-27T20:59:43.093Z,12.20
2019-04-27T21:02:32.101Z,12.10
2019-04-27T21:05:03.790Z,12.10
2019-04-27T21:07:38.118Z,12.10
2019-04-27T21:10:07.419Z,12.10
2019-04-27T21:12:37.071Z,12.10
2019-04-27T21:15:05.386Z,12.10
2019-04-27T21:17:33.889Z,12.20
2019-04-27T21:20:04.626Z,12.20
2019-04-27T21:22:33.033Z,12.30
2019-04-27T21:25:02.010Z,12.30
2019-04-27T21:27:31.933Z,12.30
2019-04-27T21:30:04.623Z,12.30
2019-04-27T21:32:33.795Z,12.20
2019-04-27T21:35:02.995Z,12.20
2019-04-27T21:37:31.249Z,12.30
2019-04-27T21:40:13.181Z,12.20
2019-04-27T21:42:41.457Z,12.20
2019-04-27T21:45:11.249Z,12.20
2019-04-27T21:47:39.241Z,12.10
2019-04-27T21:50:07.481Z,12.10
2019-04-27T21:52:41.594Z,12.10
2019-04-27T21:55:11.493Z,12.00
2019-04-27T21:57:41.132Z,11.90
2019-04-27T22:00:31.326Z,11.90
2019-04-27T22:03:01.152Z,11.90
2019-04-27T22:05:31.368Z,11.80
2019-04-27T22:08:01.178Z,11.80
2019-04-27T22:10:30.909Z,11.80
2019-04-27T22:12:58.653Z,11.70
2019-04-27T22:15:31.393Z,11.70
2019-04-27T22:18:00.688Z,11.70
2019-04-27T22:20:29.348Z,11.70
2019-04-27T22:23:03.066Z,11.70
2019-04-27T22:25:35.900Z,11.60
2019-04-27T22:28:04.008Z,11.60
2019-04-27T22:30:32.066Z,11.50
2019-04-27T22:33:01.475Z,11.50
2019-04-27T22:35:32.281Z,11.50
2019-04-27T22:38:04.964Z,11.40
2019-04-27T22:40:36.148Z,11.40
2019-04-27T22:43:22.943Z,11.40
2019-04-27T22:45:51.387Z,11.30
2019-04-27T22:48:19.826Z,11.30
2019-04-27T22:50:47.932Z,11.30
2019-04-27T22:53:17.391Z,11.30
2019-04-27T22:56:03.313Z,11.30
2019-04-27T22:58:31.731Z,11.30
2019-04-27T23:01:06.865Z,11.30
2019-04-27T23:03:36.378Z,11.30
2019-04-27T23:06:04.637Z,11.30
2019-04-27T23:08:34.590Z,11.30
2019-04-27T23:11:05.590Z,11.30
2019-04-27T23:13:34.482Z,11.30
2019-04-27T23:16:05.760Z,11.30
2019-04-27T23:18:33.730Z,11.30
2019-04-27T23:21:02.429Z,11.30
2019-04-27T23:23:32.075Z,11.30
2019-04-27T23:26:01.823Z,11.30
2019-04-27T23:28:31.298Z,11.30
2019-04-27T23:31:10.900Z,11.30
2019-04-27T23:33:42.171Z,11.30
2019-04-27T23:36:11.463Z,11.40
2019-04-27T23:38:40.857Z,11.40
2019-04-27T23:41:09.011Z,11.40
2019-04-27T23:43:37.124Z,11.40
2019-04-27T23:46:05.153Z,11.40
2019-04-27T23:48:33.207Z,11.40
2019-04-27T23:51:04.543Z,11.40
2019-04-27T23:53:34.074Z,11.40
2019-04-27T23:56:01.979Z,11.40
2019-04-27T23:58:29.831Z,11.40
